Time;durP1;ratioP1;P1;durP2;ratioP2;P2;SDS_P1;SDS_P2;PMS_P1;PMS_P2;Temp;Humidity;BMP_temperature;BMP_pressure;BME280_temperature;BME280_humidity;BME280_pressure;Samples;Min_cycle;Max_cycle;Signal;HPM_P1;HPM_P2
2022/08/20 00:01:22;;;;;;;44.23;22.10;;;15.90;99.90;;;;;;21031572;28;20442;-75
2022/08/20 00:11:25;;;;;;;41.30;23.53;;;15.80;99.90;;;;;;21030983;28;20490;-75
2022/08/20 00:21:26;;;;;;;39.50;21.10;;;15.70;99.90;;;;;;21030820;28;20068;-75
2022/08/20 00:31:27;;;;;;;37.83;21.00;;;15.80;99.90;;;;;;21030535;28;20033;-75
2022/08/20 00:41:29;;;;;;;97.93;20.60;;;16.10;99.90;;;;;;21027055;28;20036;-75
2022/08/20 00:51:45;;;;;;;71.07;21.00;;;16.10;99.90;;;;;;21029504;28;20078;-74
2022/08/20 01:01:46;;;;;;;38.33;21.15;;;16.00;99.90;;;;;;21045031;28;20039;-74
2022/08/20 01:11:47;;;;;;;50.00;21.40;;;16.10;99.90;;;;;;21031089;28;20039;-74
2022/08/20 01:21:48;;;;;;;70.33;24.87;;;16.20;99.90;;;;;;20985011;28;20395;-74
2022/08/20 01:31:49;;;;;;;67.30;24.50;;;16.00;99.90;;;;;;21001984;28;20036;-74
2022/08/20 01:42:14;;;;;;;126.80;29.00;;;16.00;99.90;;;;;;21000618;28;20029;-75
2022/08/20 01:52:25;;;;;;;50.38;25.08;;;15.80;99.90;;;;;;21018757;28;20032;-74
2022/08/20 02:02:25;;;;;;;40.97;22.42;;;15.90;99.90;;;;;;21041899;28;20040;-75
2022/08/20 02:12:26;;;;;;;36.57;20.77;;;16.10;99.90;;;;;;21040235;28;20072;-75
2022/08/20 02:22:46;;;;;;;31.20;19.70;;;16.10;99.90;;;;;;21039914;28;20036;-75
2022/08/20 02:32:48;;;;;;;31.10;19.25;;;16.10;99.90;;;;;;21016380;28;20071;-74
2022/08/20 02:42:48;;;;;;;;;;;16.00;99.90;;;;;;20998432;28;20040;-74
2022/08/20 02:52:50;;;;;;;22.30;15.00;;;16.00;99.90;;;;;;20979346;28;20286;-75
2022/08/20 03:02:50;;;;;;;19.90;13.23;;;15.80;99.90;;;;;;20996239;28;20085;-74
2022/08/20 03:12:51;;;;;;;23.03;13.80;;;15.90;99.90;;;;;;20995584;28;20503;-74
2022/08/20 03:22:52;;;;;;;29.63;14.47;;;15.80;99.90;;;;;;20993614;28;20040;-74
2022/08/20 03:32:54;;;;;;;27.30;16.43;;;15.70;99.90;;;;;;20993915;28;20127;-76
2022/08/20 03:42:55;;;;;;;;;;;15.90;99.90;;;;;;20993241;28;20036;-76
2022/08/20 03:52:58;;;;;;;27.05;15.82;;;15.90;99.90;;;;;;20992076;28;19908;-76
2022/08/20 04:02:59;;;;;;;25.60;15.25;;;15.90;99.90;;;;;;20991686;28;20039;-76
2022/08/20 04:13:00;;;;;;;33.78;17.90;;;15.90;99.90;;;;;;20973644;28;20041;-76
2022/08/20 04:23:02;;;;;;;38.30;21.10;;;15.90;99.90;;;;;;20990871;28;20039;-75
2022/08/20 04:33:02;;;;;;;41.03;20.50;;;16.00;99.90;;;;;;20990212;28;20853;-76
2022/08/20 04:43:03;;;;;;;37.33;19.87;;;16.10;99.90;;;;;;20990089;28;20036;-75
2022/08/20 04:53:07;;;;;;;45.97;22.23;;;16.10;99.90;;;;;;20971787;28;20068;-74
2022/08/20 05:03:07;;;;;;;41.58;21.92;;;16.10;99.90;;;;;;20971005;28;20047;-75
2022/08/20 05:13:10;;;;;;;42.83;21.70;;;16.10;99.90;;;;;;20988855;28;20082;-75
2022/08/20 05:23:12;;;;;;;41.63;21.70;;;16.20;99.90;;;;;;20988023;28;20047;-75
2022/08/20 05:33:17;;;;;;;48.03;24.92;;;16.40;99.90;;;;;;20988004;28;20056;-75
2022/08/20 05:43:19;;;;;;;40.53;22.65;;;16.50;99.90;;;;;;20996441;28;20166;-75
2022/08/20 05:53:21;;;;;;;41.08;22.77;;;16.70;99.90;;;;;;21002111;28;20036;-75
2022/08/20 06:13:41;;;;;;;34.72;18.88;;;17.50;99.90;;;;;;21001213;28;20039;-74
2022/08/20 06:23:42;;;;;;;29.57;17.00;;;17.80;99.90;;;;;;21001198;28;20490;-76
2022/08/20 06:33:43;;;;;;;26.10;15.47;;;17.90;99.90;;;;;;20999514;28;20047;-77
2022/08/20 06:43:44;;;;;;;22.83;14.80;;;18.20;99.90;;;;;;20998624;28;20087;-76
2022/08/20 06:53:44;;;;;;;29.10;16.87;;;18.00;99.90;;;;;;20996769;28;20039;-76
2022/08/20 07:03:48;;;;;;;29.57;17.60;;;17.90;99.90;;;;;;20979864;28;20041;-76
2022/08/20 07:13:49;;;;;;;30.42;18.35;;;17.90;99.90;;;;;;20998089;28;20411;-76
2022/08/20 07:23:51;;;;;;;36.07;18.83;;;18.00;99.90;;;;;;20998448;28;20032;-77
2022/08/20 07:33:52;;;;;;;33.20;19.50;;;18.00;99.90;;;;;;20995270;28;20141;-76
2022/08/20 07:43:53;;;;;;;30.17;16.47;;;17.90;99.90;;;;;;20993356;28;20410;-76
2022/08/20 07:53:56;;;;;;;32.33;17.77;;;17.60;99.90;;;;;;20993075;28;20047;-75
2022/08/20 08:03:59;;;;;;;27.60;16.63;;;17.80;99.90;;;;;;20992149;28;20550;-76
2022/08/20 08:14:01;;;;;;;23.98;14.85;;;17.90;99.90;;;;;;20991623;28;20046;-76
2022/08/20 08:24:02;;;;;;;26.90;17.15;;;17.80;99.90;;;;;;20991028;28;20089;-76
2022/08/20 08:34:03;;;;;;;34.22;18.23;;;17.60;99.90;;;;;;20990575;28;20045;-75
2022/08/20 08:44:13;;;;;;;29.60;17.25;;;17.60;99.90;;;;;;20990820;28;20752;-76
2022/08/20 08:54:18;;;;;;;21.38;12.45;;;18.00;99.90;;;;;;20989916;28;20438;-75
2022/08/20 09:04:22;;;;;;;12.68;7.90;;;17.90;99.90;;;;;;20989453;28;20040;-74
2022/08/20 09:14:23;;;;;;;12.10;7.78;;;17.80;99.90;;;;;;20992903;28;20044;-74
2022/08/20 09:24:24;;;;;;;23.33;12.30;;;17.60;99.90;;;;;;21005298;28;20037;-74
2022/08/20 09:34:25;;;;;;;21.60;12.77;;;17.80;99.90;;;;;;20985640;28;20051;-74
2022/08/20 09:44:26;;;;;;;15.07;9.63;;;18.00;99.90;;;;;;21002668;28;20060;-74
2022/08/20 09:54:29;;;;;;;6.80;4.97;;;18.50;99.90;;;;;;21047740;28;20036;-76
2022/08/20 10:04:29;;;;;;;6.18;3.67;;;18.60;99.90;;;;;;21089821;28;20071;-75
2022/08/20 10:14:31;;;;;;;4.47;3.33;;;19.30;99.90;;;;;;21095241;28;20122;-75
2022/08/20 10:24:31;;;;;;;4.57;3.25;;;20.60;99.90;;;;;;21076384;28;20436;-75
2022/08/20 10:34:32;;;;;;;2.73;1.83;;;21.80;99.90;;;;;;21091340;28;20094;-75
2022/08/20 10:44:33;;;;;;;3.13;1.93;;;22.40;99.90;;;;;;21088850;28;20040;-75
2022/08/20 10:54:34;;;;;;;3.60;1.70;;;21.90;99.90;;;;;;21084992;28;20040;-74
2022/08/20 11:04:35;;;;;;;1.03;0.93;;;22.40;99.90;;;;;;21084005;28;20444;-75
2022/08/20 11:14:36;;;;;;;1.00;0.90;;;23.60;99.90;;;;;;21080150;28;20127;-75
2022/08/20 11:24:37;;;;;;;3.97;1.02;;;23.40;99.90;;;;;;21078994;28;20490;-75
2022/08/20 11:34:38;;;;;;;1.95;0.88;;;23.20;99.90;;;;;;21060378;28;20093;-74
2022/08/20 11:44:39;;;;;;;2.40;0.90;;;22.90;99.90;;;;;;21076521;28;20032;-74
2022/08/20 11:54:43;;;;;;;0.90;0.50;;;23.50;99.90;;;;;;21076708;28;20086;-75
2022/08/20 12:04:44;;;;;;;0.50;0.40;;;24.70;99.90;;;;;;21075388;28;20047;-75
2022/08/20 12:14:45;;;;;;;1.30;0.40;;;25.30;99.90;;;;;;21074912;28;20486;-75
2022/08/20 12:24:45;;;;;;;;;;;25.00;99.90;;;;;;21075068;28;20127;-76
2022/08/20 12:34:47;;;;;;;0.20;0.20;;;25.20;99.90;;;;;;21028931;28;19912;-75
2022/08/20 12:44:48;;;;;;;0.55;0.30;;;24.20;99.90;;;;;;20995382;28;20426;-74
2022/08/20 12:54:50;;;;;;;0.30;0.30;;;23.80;99.90;;;;;;21047325;28;20036;-76
2022/08/20 13:04:50;;;;;;;0.40;0.30;;;24.00;99.90;;;;;;21068892;28;20115;-75
2022/08/20 13:14:51;;;;;;;;;;;23.90;99.90;;;;;;21046056;28;20058;-75
2022/08/20 13:24:52;;;;;;;0.60;0.30;;;24.90;99.90;;;;;;21060967;28;19957;-75
2022/08/20 13:34:53;;;;;;;;;;;24.10;99.90;;;;;;21070243;28;20422;-75
2022/08/20 13:44:54;;;;;;;0.43;0.20;;;24.50;99.90;;;;;;21087092;28;19912;-75
2022/08/20 13:54:54;;;;;;;;;;;23.90;99.90;;;;;;21056306;28;20050;-76
2022/08/20 14:04:55;;;;;;;0.50;0.30;;;23.60;99.90;;;;;;21021907;28;20392;-75
2022/08/20 14:14:56;;;;;;;2.47;0.30;;;23.60;99.90;;;;;;21041243;28;20028;-75
2022/08/20 14:25:01;;;;;;;;;;;23.30;99.90;;;;;;21038978;28;20042;-76
2022/08/20 14:35:02;;;;;;;0.20;0.20;;;23.50;99.90;;;;;;21013912;28;20286;-75
2022/08/20 14:45:05;;;;;;;;;;;23.70;99.90;;;;;;21049173;28;20477;-75
2022/08/20 14:55:09;;;;;;;0.30;0.10;;;24.10;99.90;;;;;;21019587;28;19988;-75
2022/08/20 15:05:10;;;;;;;0.57;0.30;;;24.20;99.90;;;;;;21044637;28;20040;-75
2022/08/20 15:15:11;;;;;;;;;;;24.20;99.90;;;;;;21079638;28;20035;-75
2022/08/20 15:25:15;;;;;;;0.52;0.20;;;24.40;99.90;;;;;;21078617;28;20378;-75
2022/08/20 15:35:16;;;;;;;0.30;0.25;;;24.80;99.90;;;;;;21077883;28;20044;-75
2022/08/20 15:45:17;;;;;;;0.43;0.32;;;25.80;99.90;;;;;;21066168;28;20034;-75
2022/08/20 15:55:18;;;;;;;0.73;0.15;;;25.70;99.90;;;;;;21002307;28;20116;-75
2022/08/20 16:05:37;;;;;;;0.32;0.30;;;26.30;99.90;;;;;;20992427;28;20044;-75
2022/08/20 16:15:42;;;;;;;0.30;0.30;;;25.40;99.90;;;;;;20991906;28;20044;-75
2022/08/20 16:25:46;;;;;;;1.30;0.30;;;25.00;99.90;;;;;;21001616;28;20123;-75
2022/08/20 16:36:09;;;;;;;1.08;0.50;;;24.80;99.90;;;;;;21033945;28;20036;-75
2022/08/20 16:46:22;;;;;;;0.60;0.20;;;24.70;99.90;;;;;;21029163;28;20033;-75
2022/08/20 16:56:33;;;;;;;0.93;0.40;;;23.90;99.90;;;;;;21028258;28;20514;-75
2022/08/20 17:06:52;;;;;;;3.92;0.75;;;23.20;99.90;;;;;;21029717;28;20067;-75
2022/08/20 17:16:53;;;;;;;1.17;0.50;;;22.30;99.90;;;;;;21026475;28;20032;-75
2022/08/20 17:27:04;;;;;;;3.70;0.95;;;22.10;99.90;;;;;;21030091;28;20032;-75
2022/08/20 17:37:09;;;;;;;1.85;0.70;;;21.70;99.90;;;;;;21064786;22;20040;-81
2022/08/20 17:47:15;;;;;;;1.17;0.90;;;21.50;99.90;;;;;;21003596;28;20412;-80
2022/08/20 17:57:20;;;;;;;2.65;1.50;;;21.00;99.90;;;;;;21023876;28;20044;-80
2022/08/20 18:07:39;;;;;;;1.20;0.70;;;20.60;99.90;;;;;;21016317;28;20402;-80
2022/08/20 18:17:55;;;;;;;3.67;1.10;;;20.50;99.90;;;;;;20990625;28;20467;-80
2022/08/20 18:28:04;;;;;;;0.90;0.70;;;20.50;99.90;;;;;;21008234;28;20032;-79
2022/08/20 18:38:25;;;;;;;2.17;0.77;;;20.10;99.90;;;;;;21038769;28;20040;-80
2022/08/20 18:48:26;;;;;;;1.90;0.85;;;20.10;99.90;;;;;;21021110;28;20067;-80
2022/08/20 18:58:35;;;;;;;3.53;1.07;;;20.00;99.90;;;;;;21011531;28;20040;-80
2022/08/20 19:08:48;;;;;;;5.38;0.90;;;19.80;99.90;;;;;;21070032;28;20100;-80
2022/08/20 19:18:52;;;;;;;3.50;1.00;;;19.50;99.90;;;;;;21063685;28;20040;-79
2022/08/20 19:28:57;;;;;;;4.80;1.10;;;19.00;99.90;;;;;;21088331;28;20032;-80
2022/08/20 19:39:01;;;;;;;1.85;1.30;;;19.20;99.90;;;;;;21080494;28;20047;-80
2022/08/20 19:49:12;;;;;;;3.70;1.08;;;18.80;99.90;;;;;;21057713;28;20048;-80
2022/08/20 19:59:19;;;;;;;1.45;1.17;;;18.20;99.90;;;;;;21006822;28;20037;-80
2022/08/20 20:09:25;;;;;;;1.02;0.80;;;18.60;99.90;;;;;;21039091;28;20037;-80
2022/08/20 20:19:26;;;;;;;1.75;1.05;;;18.50;99.90;;;;;;21016906;28;20045;-80
2022/08/20 20:29:34;;;;;;;4.47;1.00;;;18.80;99.90;;;;;;21012942;28;20044;-80
2022/08/20 20:39:37;;;;;;;2.15;1.00;;;18.60;99.90;;;;;;21024256;28;20490;-80
2022/08/20 20:50:09;;;;;;;2.53;0.88;;;18.70;99.90;;;;;;21000705;28;20100;-80
2022/08/20 21:00:13;;;;;;;2.07;0.60;;;18.70;99.90;;;;;;21028683;28;20093;-80
2022/08/20 21:10:14;;;;;;;3.13;0.80;;;18.70;99.90;;;;;;21014908;28;20040;-78
2022/08/20 21:20:15;;;;;;;;;;;18.50;99.90;;;;;;20998801;28;20044;-78
2022/08/20 21:30:17;;;;;;;1.23;1.00;;;18.40;99.90;;;;;;21029029;28;19926;-79
2022/08/20 21:40:18;;;;;;;1.55;0.93;;;18.40;99.90;;;;;;21032283;28;20495;-78
2022/08/20 21:50:19;;;;;;;2.13;0.80;;;18.30;99.90;;;;;;21046234;28;20043;-79
2022/08/20 22:00:44;;;;;;;1.23;0.90;;;17.90;99.90;;;;;;21013783;28;20047;-79
2022/08/20 22:10:44;;;;;;;1.00;0.90;;;16.60;99.90;;;;;;21028122;28;20044;-79
2022/08/20 22:20:45;;;;;;;4.73;1.30;;;16.70;99.90;;;;;;21048937;28;20166;-80
2022/08/20 22:30:47;;;;;;;3.53;1.13;;;16.60;99.90;;;;;;21089420;28;20028;-80
2022/08/20 22:40:48;;;;;;;3.28;1.40;;;16.70;99.90;;;;;;21056646;28;20039;-80
2022/08/20 22:50:49;;;;;;;4.33;1.73;;;16.70;99.90;;;;;;21087333;28;20028;-80
2022/08/20 23:00:52;;;;;;;;;;;16.80;99.90;;;;;;21081827;28;20048;-80
2022/08/20 23:10:53;;;;;;;;;;;17.10;99.90;;;;;;21058620;28;19908;-79
2022/08/20 23:20:55;;;;;;;3.63;2.87;;;17.10;99.90;;;;;;21059262;28;19920;-78
2022/08/20 23:30:56;;;;;;;5.47;3.70;;;16.80;99.90;;;;;;21050929;28;20455;-79
2022/08/20 23:40:57;;;;;;;2.30;1.73;;;16.80;99.90;;;;;;20969239;22;20049;-75
2022/08/20 23:50:58;;;;;;;5.67;3.90;;;16.20;99.90;;;;;;20950856;28;20040;-75
